createdAt,value
2023-05-03T00:01:59.133Z,99.90
2023-05-03T00:04:26.111Z,99.90
2023-05-03T00:06:53.179Z,99.90
2023-05-03T00:09:21.510Z,99.90
2023-05-03T00:11:48.556Z,99.70
2023-05-03T00:14:15.912Z,99.60
2023-05-03T00:16:42.956Z,99.90
2023-05-03T00:19:15.041Z,99.90
2023-05-03T00:21:51.601Z,99.90
2023-05-03T00:24:19.037Z,99.90
2023-05-03T00:26:46.043Z,99.90
2023-05-03T00:29:13.053Z,99.90
2023-05-03T00:31:40.004Z,99.90
2023-05-03T00:34:07.178Z,99.90
2023-05-03T00:36:35.787Z,99.90
2023-05-03T00:39:04.097Z,99.90
2023-05-03T00:41:32.844Z,99.90
2023-05-03T00:43:59.812Z,99.90
2023-05-03T00:46:26.872Z,99.90
2023-05-03T00:48:53.953Z,99.90
2023-05-03T00:51:21.852Z,99.90
2023-05-03T00:53:49.014Z,99.90
2023-05-03T00:56:20.258Z,99.90
2023-05-03T00:58:47.379Z,99.90
2023-05-03T01:01:15.574Z,99.90
2023-05-03T01:03:43.364Z,99.90
2023-05-03T01:06:13.671Z,99.90
2023-05-03T01:08:51.081Z,99.90
2023-05-03T01:11:23.501Z,99.90
2023-05-03T01:14:10.950Z,99.90
2023-05-03T01:16:47.204Z,99.90
2023-05-03T01:19:15.919Z,99.90
2023-05-03T01:21:44.350Z,99.90
2023-05-03T01:24:18.326Z,99.90
2023-05-03T01:26:45.387Z,99.90
2023-05-03T01:29:12.460Z,99.90
2023-05-03T01:31:42.022Z,99.90
2023-05-03T01:34:22.765Z,99.90
2023-05-03T01:36:51.003Z,99.90
2023-05-03T01:39:27.045Z,99.90
2023-05-03T01:41:54.528Z,99.90
2023-05-03T01:44:25.700Z,99.90
2023-05-03T01:46:52.915Z,99.90
2023-05-03T01:49:19.909Z,99.90
2023-05-03T01:51:46.921Z,99.90
2023-05-03T01:54:13.988Z,99.90
2023-05-03T01:56:41.453Z,99.90
2023-05-03T01:59:08.424Z,99.90
2023-05-03T02:01:35.510Z,99.90
2023-05-03T02:04:02.586Z,99.90
2023-05-03T02:06:29.616Z,99.90
2023-05-03T02:08:56.628Z,99.90
2023-05-03T02:11:23.617Z,99.90
2023-05-03T02:13:53.227Z,99.90
2023-05-03T02:16:20.265Z,99.90
2023-05-03T02:18:47.335Z,99.90
2023-05-03T02:21:14.337Z,99.90
2023-05-03T02:23:41.575Z,99.90
2023-05-03T02:26:08.664Z,99.90
2023-05-03T02:28:35.598Z,99.90
2023-05-03T02:31:02.673Z,99.90
2023-05-03T02:33:30.056Z,99.90
2023-05-03T02:35:57.015Z,99.90
2023-05-03T02:38:24.013Z,99.90
2023-05-03T02:40:51.206Z,99.90
2023-05-03T02:43:18.607Z,99.90
2023-05-03T02:45:45.614Z,99.90
2023-05-03T02:48:12.793Z,99.90
2023-05-03T02:50:43.015Z,99.90
2023-05-03T02:53:09.983Z,99.90
2023-05-03T02:55:36.953Z,99.90
2023-05-03T02:58:04.052Z,99.90
2023-05-03T03:00:30.978Z,99.90
2023-05-03T03:03:00.288Z,99.90
2023-05-03T03:05:27.322Z,99.90
2023-05-03T03:07:54.672Z,99.90
2023-05-03T03:10:21.603Z,99.90
2023-05-03T03:12:48.660Z,99.90
2023-05-03T03:15:18.970Z,99.90
2023-05-03T03:17:45.932Z,99.90
2023-05-03T03:20:13.017Z,99.90
2023-05-03T03:22:40.094Z,99.90
2023-05-03T03:25:07.498Z,99.90
2023-05-03T03:27:34.527Z,99.90
2023-05-03T03:30:01.694Z,99.90
2023-05-03T03:32:29.255Z,99.90
2023-05-03T03:34:59.494Z,99.90
2023-05-03T03:37:26.538Z,99.90
2023-05-03T03:39:54.293Z,99.90
2023-05-03T03:42:22.413Z,99.90
2023-05-03T03:44:49.896Z,99.90
2023-05-03T03:47:16.893Z,99.90
2023-05-03T03:49:43.816Z,99.90
2023-05-03T03:52:10.903Z,99.90
2023-05-03T03:54:37.827Z,99.90
2023-05-03T03:57:05.394Z,99.90
2023-05-03T03:59:32.309Z,99.90
2023-05-03T04:01:59.321Z,99.90
2023-05-03T04:04:26.825Z,99.90
2023-05-03T04:06:54.021Z,99.90
2023-05-03T04:09:21.823Z,99.90
2023-05-03T04:11:49.413Z,99.90
2023-05-03T04:14:16.405Z,99.90
2023-05-03T04:16:43.442Z,99.90
2023-05-03T04:19:10.453Z,99.90
2023-05-03T04:21:38.453Z,99.90
2023-05-03T04:24:07.065Z,99.90
2023-05-03T04:26:34.332Z,99.90
2023-05-03T04:29:01.320Z,99.90
2023-05-03T04:31:28.606Z,99.90
2023-05-03T04:33:55.875Z,99.90
2023-05-03T04:36:26.091Z,99.90
2023-05-03T04:38:53.038Z,99.90
2023-05-03T04:41:20.369Z,99.90
2023-05-03T04:43:47.386Z,99.90
2023-05-03T04:46:14.337Z,99.90
2023-05-03T04:48:41.315Z,99.90
2023-05-03T04:51:08.370Z,99.90
2023-05-03T04:53:35.319Z,99.90
2023-05-03T04:56:02.274Z,99.90
2023-05-03T04:58:29.211Z,99.90
2023-05-03T05:00:56.192Z,99.90
2023-05-03T05:03:23.176Z,99.90
2023-05-03T05:05:50.198Z,99.90
2023-05-03T05:08:17.243Z,99.90
2023-05-03T05:10:44.169Z,99.90
2023-05-03T05:13:11.282Z,99.90
2023-05-03T05:15:38.308Z,99.90
2023-05-03T05:18:05.493Z,99.90
2023-05-03T05:20:32.714Z,99.90
2023-05-03T05:22:59.579Z,99.90
2023-05-03T05:25:26.629Z,99.90
2023-05-03T05:27:53.595Z,99.90
2023-05-03T05:30:20.708Z,99.90
2023-05-03T05:32:48.153Z,99.90
2023-05-03T05:35:17.874Z,99.90
2023-05-03T05:37:45.216Z,99.90
2023-05-03T05:40:12.781Z,99.90
2023-05-03T05:42:39.899Z,99.90
2023-05-03T05:45:08.449Z,99.90
2023-05-03T05:47:35.912Z,99.90
2023-05-03T05:50:09.677Z,99.90
2023-05-03T05:52:42.240Z,99.90
2023-05-03T05:55:09.931Z,99.90
2023-05-03T05:57:36.884Z,99.90
2023-05-03T06:00:09.520Z,99.90
2023-05-03T06:02:36.749Z,99.90
2023-05-03T06:05:07.475Z,99.90
2023-05-03T06:07:35.041Z,99.90
2023-05-03T06:10:02.138Z,99.90
2023-05-03T06:12:29.282Z,99.90
2023-05-03T06:15:02.647Z,99.90
2023-05-03T06:17:30.275Z,99.90
2023-05-03T06:19:57.843Z,99.90
2023-05-03T06:22:26.229Z,99.90
2023-05-03T06:24:53.383Z,99.90
2023-05-03T06:27:20.369Z,99.90
2023-05-03T06:29:48.219Z,99.90
2023-05-03T06:32:15.183Z,99.90
2023-05-03T06:34:42.236Z,99.90
2023-05-03T06:37:10.172Z,99.90
2023-05-03T06:39:37.167Z,99.90
2023-05-03T06:42:04.251Z,99.90
2023-05-03T06:44:31.273Z,99.90
2023-05-03T06:46:58.480Z,99.90
2023-05-03T06:49:25.579Z,99.90
2023-05-03T06:51:52.699Z,99.90
2023-05-03T06:54:20.895Z,99.90
2023-05-03T06:56:47.928Z,99.90
2023-05-03T06:59:14.950Z,99.90
2023-05-03T07:01:41.995Z,99.90
2023-05-03T07:04:09.128Z,99.90
2023-05-03T07:06:48.108Z,99.90
2023-05-03T07:09:31.747Z,99.90
2023-05-03T07:12:08.943Z,99.90
2023-05-03T07:14:36.092Z,99.90
2023-05-03T07:17:03.069Z,99.90
2023-05-03T07:19:30.807Z,99.90
2023-05-03T07:21:57.884Z,99.90
2023-05-03T07:24:27.561Z,99.90
2023-05-03T07:26:54.755Z,99.90
2023-05-03T07:29:22.046Z,99.90
2023-05-03T07:31:50.863Z,99.90
2023-05-03T07:34:19.129Z,99.90
2023-05-03T07:36:46.127Z,99.90
2023-05-03T07:39:13.279Z,99.90
2023-05-03T07:41:40.360Z,99.90
2023-05-03T07:44:07.953Z,99.90
2023-05-03T07:46:35.604Z,99.90
2023-05-03T07:49:04.770Z,99.90
2023-05-03T07:51:38.575Z,99.90
2023-05-03T07:54:05.789Z,99.90
2023-05-03T07:56:32.865Z,99.90
2023-05-03T08:01:31.170Z,99.90
2023-05-03T08:03:59.156Z,99.90
2023-05-03T08:06:26.491Z,99.90
2023-05-03T08:08:53.513Z,99.90
2023-05-03T08:11:20.540Z,99.90
2023-05-03T08:13:47.628Z,99.90
2023-05-03T08:16:14.742Z,99.90
2023-05-03T08:18:41.991Z,99.90
2023-05-03T08:21:10.762Z,99.90
2023-05-03T08:23:38.138Z,99.90
2023-05-03T08:26:05.993Z,99.90
2023-05-03T08:28:33.045Z,99.90
2023-05-03T08:31:00.172Z,99.90
2023-05-03T08:33:27.167Z,99.90
2023-05-03T08:35:54.215Z,99.90
2023-05-03T08:38:21.380Z,99.90
2023-05-03T08:40:50.520Z,99.90
2023-05-03T08:43:20.234Z,99.80
2023-05-03T08:45:47.523Z,99.90
2023-05-03T08:48:14.678Z,99.00
2023-05-03T08:50:44.297Z,99.90
2023-05-03T08:53:11.673Z,99.10
2023-05-03T08:55:39.147Z,99.50
2023-05-03T08:58:13.106Z,99.80
2023-05-03T09:03:10.236Z,99.60
2023-05-03T09:05:39.304Z,98.20
2023-05-03T09:08:10.356Z,99.30
2023-05-03T09:10:38.771Z,98.00
2023-05-03T09:13:06.795Z,99.30
2023-05-03T09:15:34.507Z,99.00
2023-05-03T09:18:12.130Z,98.70
2023-05-03T09:20:40.373Z,98.20
2023-05-03T09:23:08.429Z,99.40
2023-05-03T09:25:42.603Z,99.70
2023-05-03T09:28:09.750Z,99.30
2023-05-03T09:30:37.122Z,99.30
2023-05-03T09:33:04.875Z,98.80
2023-05-03T09:35:32.850Z,98.10
2023-05-03T09:38:00.482Z,98.10
2023-05-03T09:40:28.172Z,98.10
2023-05-03T09:43:08.607Z,98.50
2023-05-03T09:45:36.575Z,98.00
2023-05-03T09:48:04.774Z,97.50
2023-05-03T09:50:32.944Z,97.00
2023-05-03T09:53:01.709Z,97.10
2023-05-03T09:55:29.813Z,97.90
2023-05-03T09:57:58.032Z,98.00
2023-05-03T10:00:25.756Z,97.50
2023-05-03T10:02:54.794Z,96.60
2023-05-03T10:05:22.366Z,96.60
2023-05-03T10:07:51.429Z,97.40
2023-05-03T10:10:18.522Z,97.10
2023-05-03T10:12:45.734Z,96.00
2023-05-03T10:15:13.295Z,96.30
2023-05-03T10:17:47.079Z,96.60
2023-05-03T10:20:32.993Z,97.70
2023-05-03T10:23:05.978Z,96.30
2023-05-03T10:25:33.662Z,95.10
2023-05-03T10:28:07.560Z,96.50
2023-05-03T10:30:35.661Z,96.70
2023-05-03T10:33:11.969Z,95.80
2023-05-03T10:35:40.087Z,95.80
2023-05-03T10:38:17.199Z,95.80
2023-05-03T10:40:45.006Z,95.20
2023-05-03T10:43:30.456Z,94.40
2023-05-03T10:45:58.166Z,94.40
2023-05-03T10:48:25.643Z,95.20
2023-05-03T10:50:53.141Z,95.50
2023-05-03T10:53:38.360Z,94.30
2023-05-03T10:56:08.462Z,95.10
2023-05-03T10:58:36.977Z,93.60
2023-05-03T11:01:05.713Z,95.50
2023-05-03T11:03:51.542Z,94.00
2023-05-03T11:06:38.194Z,94.80
2023-05-03T11:09:06.982Z,96.20
2023-05-03T11:11:36.454Z,95.60
2023-05-03T11:14:04.293Z,94.20
2023-05-03T11:16:31.476Z,92.50
2023-05-03T11:18:59.735Z,94.20
2023-05-03T11:21:26.692Z,94.40
2023-05-03T11:23:53.667Z,94.80
2023-05-03T11:26:26.673Z,94.20
2023-05-03T11:28:54.382Z,94.00
2023-05-03T11:31:22.214Z,94.80
2023-05-03T11:33:49.693Z,94.00
2023-05-03T11:36:16.778Z,92.20
2023-05-03T11:38:43.875Z,92.40
2023-05-03T11:41:14.923Z,92.20
2023-05-03T11:43:45.672Z,93.30
2023-05-03T11:46:14.953Z,92.60
2023-05-03T11:48:43.635Z,94.50
2023-05-03T11:51:14.703Z,92.50
2023-05-03T11:53:43.066Z,92.70
2023-05-03T11:56:12.570Z,93.70
2023-05-03T11:58:52.432Z,92.00
2023-05-03T12:01:21.989Z,92.30
2023-05-03T12:03:53.281Z,92.00
2023-05-03T12:06:21.970Z,92.80
2023-05-03T12:08:50.174Z,90.80
2023-05-03T12:11:18.646Z,89.90
2023-05-03T12:13:47.744Z,91.30
2023-05-03T12:16:19.368Z,90.10
2023-05-03T12:18:55.642Z,92.60
2023-05-03T12:23:56.707Z,92.20
2023-05-03T12:26:26.179Z,91.30
2023-05-03T12:28:56.044Z,90.70
2023-05-03T12:31:24.201Z,90.60
2023-05-03T12:36:25.851Z,90.30
2023-05-03T12:38:56.059Z,90.30
2023-05-03T12:44:00.012Z,90.20
2023-05-03T12:46:34.537Z,90.90
2023-05-03T12:49:06.409Z,89.90
2023-05-03T12:51:34.602Z,87.40
2023-05-03T12:54:02.510Z,88.70
2023-05-03T12:56:32.802Z,88.20
2023-05-03T13:04:34.923Z,87.10
2023-05-03T13:06:48.166Z,87.20
2023-05-03T13:11:48.311Z,86.40
2023-05-03T13:14:17.149Z,85.60
2023-05-03T13:16:49.228Z,80.70
2023-05-03T13:19:16.520Z,85.20
2023-05-03T13:21:43.482Z,86.30
2023-05-03T13:24:10.504Z,87.10
2023-05-03T13:26:37.512Z,86.70
2023-05-03T13:29:05.328Z,84.60
2023-05-03T13:31:32.305Z,83.70
2023-05-03T13:33:59.305Z,83.40
2023-05-03T13:36:27.325Z,83.50
2023-05-03T13:38:54.425Z,83.50
2023-05-03T13:41:22.096Z,81.90
2023-05-03T13:43:49.236Z,81.40
2023-05-03T13:46:22.074Z,80.10
2023-05-03T13:48:50.160Z,83.20
2023-05-03T13:51:17.231Z,82.40
2023-05-03T13:53:44.812Z,83.60
2023-05-03T13:56:12.048Z,80.60
2023-05-03T13:58:40.018Z,81.10
2023-05-03T14:01:07.137Z,80.20
2023-05-03T14:03:34.507Z,80.30
2023-05-03T14:06:02.978Z,82.30
2023-05-03T14:08:30.456Z,80.70
2023-05-03T14:10:57.641Z,79.30
2023-05-03T14:13:25.088Z,78.80
2023-05-03T14:15:52.342Z,81.00
2023-05-03T14:18:19.551Z,81.40
2023-05-03T14:20:47.851Z,75.80
2023-05-03T14:23:14.903Z,78.90
2023-05-03T14:25:42.137Z,77.00
2023-05-03T14:28:09.399Z,79.80
2023-05-03T14:30:36.736Z,78.90
2023-05-03T14:33:03.906Z,78.10
2023-05-03T14:35:31.047Z,76.70
2023-05-03T14:37:58.159Z,76.70
2023-05-03T14:40:25.331Z,75.60
2023-05-03T14:42:52.447Z,76.30
2023-05-03T14:45:19.461Z,75.00
2023-05-03T14:47:46.529Z,76.00
2023-05-03T14:50:13.539Z,76.90
2023-05-03T14:52:40.737Z,77.00
2023-05-03T14:55:08.158Z,75.30
2023-05-03T14:57:36.545Z,74.30
2023-05-03T15:00:05.183Z,76.00
2023-05-03T15:02:32.542Z,78.50
2023-05-03T15:05:00.225Z,74.50
2023-05-03T15:07:27.453Z,76.50
2023-05-03T15:09:54.436Z,75.00
2023-05-03T15:12:21.419Z,76.10
2023-05-03T15:14:48.933Z,72.70
2023-05-03T15:17:15.967Z,72.60
2023-05-03T15:19:42.965Z,71.90
2023-05-03T15:22:09.985Z,74.40
2023-05-03T15:24:37.132Z,75.40
2023-05-03T15:27:04.915Z,77.40
2023-05-03T15:29:31.952Z,75.80
2023-05-03T15:31:59.000Z,73.90
2023-05-03T15:34:26.007Z,71.30
2023-05-03T15:36:53.125Z,72.50
2023-05-03T15:39:20.142Z,70.40
2023-05-03T15:41:47.088Z,70.30
2023-05-03T15:44:15.198Z,71.10
2023-05-03T15:46:43.108Z,69.80
2023-05-03T15:49:10.819Z,72.10
2023-05-03T15:51:37.869Z,70.90
2023-05-03T15:54:04.919Z,70.60
2023-05-03T15:56:32.503Z,71.30
2023-05-03T15:58:59.497Z,70.20
2023-05-03T16:01:26.511Z,72.40
2023-05-03T16:03:53.529Z,71.40
2023-05-03T16:06:20.505Z,68.70
2023-05-03T16:08:47.622Z,68.40
2023-05-03T16:11:15.269Z,69.60
2023-05-03T16:13:42.244Z,70.90
2023-05-03T16:16:09.308Z,71.70
2023-05-03T16:18:36.561Z,69.80
2023-05-03T16:21:03.679Z,71.80
2023-05-03T16:23:30.777Z,71.70
2023-05-03T16:25:57.899Z,71.30
2023-05-03T16:28:25.132Z,70.90
2023-05-03T16:30:52.186Z,71.20
2023-05-03T16:33:19.800Z,69.50
2023-05-03T16:35:46.869Z,69.40
2023-05-03T16:38:13.847Z,70.60
2023-05-03T16:40:40.916Z,70.70
2023-05-03T16:43:08.020Z,67.70
2023-05-03T16:45:35.080Z,70.40
2023-05-03T16:48:04.807Z,69.30
2023-05-03T16:50:33.693Z,69.50
2023-05-03T16:53:00.856Z,69.90
2023-05-03T16:55:27.853Z,71.00
2023-05-03T16:57:54.797Z,67.80
2023-05-03T17:03:31.764Z,68.40
2023-05-03T17:06:05.330Z,70.50
2023-05-03T17:08:32.686Z,69.70
2023-05-03T17:11:01.855Z,69.90
2023-05-03T17:13:29.189Z,70.70
2023-05-03T17:15:56.149Z,70.70
2023-05-03T17:18:23.090Z,71.50
2023-05-03T17:20:50.298Z,71.70
2023-05-03T17:23:20.305Z,70.70
2023-05-03T17:25:48.618Z,69.90
2023-05-03T17:28:16.060Z,70.90
2023-05-03T17:30:43.034Z,72.10
2023-05-03T17:33:10.085Z,72.20
2023-05-03T17:35:37.104Z,72.20
2023-05-03T17:38:05.528Z,73.20
2023-05-03T17:40:32.662Z,72.20
2023-05-03T17:42:59.814Z,72.30
2023-05-03T17:45:28.391Z,71.40
2023-05-03T17:47:56.714Z,71.70
2023-05-03T17:50:23.759Z,72.10
2023-05-03T17:52:50.707Z,71.60
2023-05-03T17:55:18.426Z,71.50
2023-05-03T17:57:46.025Z,72.50
2023-05-03T18:00:15.885Z,73.10
2023-05-03T18:02:43.514Z,73.60
2023-05-03T18:05:11.704Z,74.30
2023-05-03T18:07:38.779Z,73.50
2023-05-03T18:10:06.400Z,73.60
2023-05-03T18:12:33.583Z,74.10
2023-05-03T18:15:02.324Z,74.00
2023-05-03T18:17:29.752Z,74.30
2023-05-03T18:19:56.675Z,75.40
2023-05-03T18:22:23.657Z,75.30
2023-05-03T18:24:59.188Z,76.00
2023-05-03T18:27:26.246Z,75.50
2023-05-03T18:29:53.163Z,76.10
2023-05-03T18:32:20.074Z,77.00
2023-05-03T18:34:47.173Z,77.30
2023-05-03T18:37:14.361Z,77.40
2023-05-03T18:39:41.387Z,78.10
2023-05-03T18:42:08.402Z,78.30
2023-05-03T18:44:35.456Z,78.70
2023-05-03T18:47:02.666Z,78.50
2023-05-03T18:49:29.679Z,78.60
2023-05-03T18:51:56.654Z,78.90
2023-05-03T18:54:23.593Z,79.00
2023-05-03T18:56:50.513Z,79.10
2023-05-03T18:59:18.717Z,79.30
2023-05-03T19:01:49.966Z,80.70
2023-05-03T19:04:17.026Z,79.70
2023-05-03T19:06:44.243Z,80.10
2023-05-03T19:09:12.139Z,80.00
2023-05-03T19:11:42.984Z,80.80
2023-05-03T19:14:10.144Z,81.00
2023-05-03T19:16:37.676Z,81.20
2023-05-03T19:19:04.684Z,81.00
2023-05-03T19:21:32.086Z,81.40
2023-05-03T19:23:59.225Z,81.80
2023-05-03T19:26:26.242Z,81.80
2023-05-03T19:28:53.267Z,82.30
2023-05-03T19:31:20.309Z,82.70
2023-05-03T19:33:47.367Z,82.70
2023-05-03T19:36:15.182Z,83.00
2023-05-03T19:38:42.203Z,83.00
2023-05-03T19:41:12.526Z,83.10
2023-05-03T19:43:40.289Z,83.00
2023-05-03T19:46:07.636Z,83.70
2023-05-03T19:48:34.868Z,83.60
2023-05-03T19:51:02.739Z,83.60
2023-05-03T19:53:29.741Z,83.80
2023-05-03T19:55:57.337Z,84.00
2023-05-03T19:58:25.091Z,84.20
2023-05-03T20:00:52.734Z,84.10
2023-05-03T20:03:20.019Z,84.10
2023-05-03T20:05:47.475Z,84.50
2023-05-03T20:08:14.589Z,84.80
2023-05-03T20:10:44.654Z,85.00
2023-05-03T20:13:13.290Z,85.30
2023-05-03T20:15:40.367Z,85.20
2023-05-03T20:18:07.491Z,85.60
2023-05-03T20:20:34.649Z,85.90
2023-05-03T20:23:01.705Z,86.20
2023-05-03T20:25:28.691Z,87.00
2023-05-03T20:27:55.696Z,86.70
2023-05-03T20:30:23.199Z,87.40
2023-05-03T20:32:50.285Z,87.90
2023-05-03T20:35:18.284Z,88.00
2023-05-03T20:37:45.232Z,88.00
2023-05-03T20:40:12.466Z,88.10
2023-05-03T20:42:39.414Z,89.30
2023-05-03T20:45:06.672Z,88.80
2023-05-03T20:47:33.838Z,88.80
2023-05-03T20:50:00.799Z,88.70
2023-05-03T20:52:28.003Z,89.70
2023-05-03T20:54:54.981Z,88.90
2023-05-03T20:57:22.028Z,89.10
2023-05-03T20:59:49.304Z,89.60
2023-05-03T21:02:16.275Z,89.80
2023-05-03T21:04:43.286Z,89.20
2023-05-03T21:07:10.923Z,89.80
2023-05-03T21:09:38.541Z,89.80
2023-05-03T21:12:05.835Z,90.00
2023-05-03T21:14:32.801Z,89.90
2023-05-03T21:17:01.622Z,90.10
2023-05-03T21:19:28.575Z,90.20
2023-05-03T21:21:55.522Z,90.20
2023-05-03T21:24:25.784Z,90.50
2023-05-03T21:26:52.770Z,90.20
2023-05-03T21:29:19.689Z,90.60
2023-05-03T21:31:46.840Z,90.70
2023-05-03T21:34:13.925Z,90.60
2023-05-03T21:36:40.821Z,90.80
2023-05-03T21:39:07.883Z,90.90
2023-05-03T21:41:35.120Z,91.10
2023-05-03T21:44:02.508Z,91.10
2023-05-03T21:46:29.569Z,91.20
2023-05-03T21:48:56.856Z,91.20
2023-05-03T21:51:25.264Z,91.40
2023-05-03T21:53:52.266Z,91.50
2023-05-03T21:56:19.200Z,91.50
2023-05-03T21:58:46.219Z,91.30
2023-05-03T22:01:15.467Z,91.90
2023-05-03T22:03:42.535Z,91.90
2023-05-03T22:06:10.276Z,91.80
2023-05-03T22:08:37.816Z,92.00
2023-05-03T22:11:07.175Z,92.30
2023-05-03T22:13:34.728Z,92.20
2023-05-03T22:16:08.305Z,92.20
2023-05-03T22:18:35.617Z,92.50
2023-05-03T22:21:02.934Z,92.60
2023-05-03T22:23:30.004Z,92.10
2023-05-03T22:25:57.471Z,92.40
2023-05-03T22:28:24.497Z,92.40
2023-05-03T22:30:51.508Z,92.30
2023-05-03T22:33:18.516Z,92.60
2023-05-03T22:35:45.511Z,92.60
2023-05-03T22:38:12.460Z,92.60
2023-05-03T22:40:39.456Z,92.80
2023-05-03T22:43:06.502Z,92.90
2023-05-03T22:45:33.775Z,92.90
2023-05-03T22:48:01.197Z,93.30
2023-05-03T22:50:28.196Z,93.30
2023-05-03T22:52:55.126Z,93.20
2023-05-03T22:55:22.157Z,93.60
2023-05-03T22:57:49.084Z,93.20
2023-05-03T23:00:16.856Z,93.30
2023-05-03T23:02:43.849Z,93.30
2023-05-03T23:05:10.810Z,93.60
2023-05-03T23:07:37.890Z,93.70
2023-05-03T23:10:05.556Z,93.90
2023-05-03T23:12:32.817Z,93.60
2023-05-03T23:14:59.967Z,93.70
2023-05-03T23:17:26.991Z,93.80
2023-05-03T23:19:59.184Z,94.00
2023-05-03T23:22:26.131Z,94.10
2023-05-03T23:24:53.057Z,94.10
2023-05-03T23:27:20.001Z,94.00
2023-05-03T23:29:48.449Z,94.50
2023-05-03T23:32:16.011Z,94.60
2023-05-03T23:34:43.865Z,94.30
2023-05-03T23:37:10.988Z,94.70
2023-05-03T23:39:42.809Z,94.80
2023-05-03T23:42:10.028Z,94.80
2023-05-03T23:44:53.011Z,95.00
2023-05-03T23:47:21.882Z,95.10
2023-05-03T23:49:48.864Z,95.40
2023-05-03T23:52:19.193Z,95.00
2023-05-03T23:54:46.306Z,95.50
2023-05-03T23:57:13.236Z,95.40
2023-05-03T23:59:40.133Z,95.60
